Latest Weather Observations for Mount Moornapa

IDV60801

Issued at 4:31 pm EST Tuesday 7 July 2015 (issued every 30 minutes, with the page automatically refreshed every 10 minutes)

About weather observations | Map of weather stations | Latest weather observations for VIC | Other Formats
Station Details ID: 085296 Name: MOUNT MOORNAPA Lat: -37.75 Lon: 147.14 Height: 480.0 m
Data from the previous 72 hours. | See also: Recent months at Mount Moornapa
Date/Time
EST
Temp
°C
App
Temp
°C
Dew
Point
Rel
Hum
%
Delta-T
°C
Wind Press
QNH
hPa
Press
MSL
hPa
Rain
since 9 am
mm
Dir
 
Spd
km/h
Gust
km/h
Spd
kts
Gust
kts
07/04:30pm 6.8 4.7 6.7 99 0.0 ESE 7 13 4 7 - - 1.6
07/04:00pm 7.1 5.3 7.0 99 0.0 ESE 6 9 3 5 - - 1.6
07/03:30pm 7.3 5.9 7.2 99 0.0 SE 4 9 2 5 - - 1.6
07/03:00pm 7.7 6.8 7.6 99 0.0 SE 2 4 1 2 - - 1.6
07/02:30pm 7.3 6.7 7.2 99 0.0 CALM 0 2 0 1 - - 1.6
07/02:00pm 7.3 6.7 7.2 99 0.0 CALM 0 0 0 0 - - 1.6
07/01:30pm 7.2 6.5 7.1 99 0.0 CALM 0 0 0 0 - - 1.6
07/01:00pm 7.3 6.7 7.2 99 0.0 CALM 0 0 0 0 - - 1.6
07/12:30pm 7.1 6.4 7.0 99 0.0 CALM 0 0 0 0 - - 1.4
07/12:00pm 7.2 6.5 7.1 99 0.0 CALM 0 0 0 0 - - 1.2
07/11:30am 6.9 6.2 6.8 99 0.0 CALM 0 0 0 0 - - 1.0
07/11:00am 6.6 5.8 6.5 99 0.0 CALM 0 2 0 1 - - 1.0
07/10:30am 6.8 6.0 6.7 99 0.0 CALM 0 4 0 2 - - 1.0
07/10:00am 6.6 5.8 6.5 99 0.0 CALM 0 4 0 2 - - 0.8
07/09:30am 6.5 5.7 6.4 99 0.0 CALM 0 0 0 0 - - 0.2
07/09:00am 6.4 5.6 6.3 99 0.0 CALM 0 0 0 0 - - 0.6
07/08:30am 6.2 5.3 6.1 99 0.0 CALM 0 0 0 0 - - 0.6
07/08:00am 6.2 5.3 6.1 99 0.0 CALM 0 0 0 0 - - 0.2
07/07:30am 6.1 5.2 6.0 99 0.0 CALM 0 0 0 0 - - 0.2
07/07:00am 6.1 5.2 6.0 99 0.0 CALM 0 0 0 0 - - 0.2
07/06:30am 6.2 5.3 6.1 99 0.0 CALM 0 0 0 0 - - 0.2
07/06:00am 6.1 5.2 6.0 99 0.0 CALM 0 0 0 0 - - 0.2
07/05:30am 6.0 5.1 5.9 99 0.0 CALM 0 0 0 0 - - 0.2
07/05:00am 6.1 5.2 6.0 99 0.0 CALM 0 0 0 0 - - 0.2
07/04:30am 6.3 5.3 5.7 96 0.3 CALM 0 0 0 0 - - 0.2
07/04:00am 6.3 5.3 5.6 95 0.3 CALM 0 0 0 0 - - 0.2
07/03:30am 6.5 5.5 5.8 95 0.3 CALM 0 0 0 0 - - 0.2
07/03:00am 6.4 5.4 5.7 95 0.3 CALM 0 0 0 0 - - 0.2
07/02:30am 6.5 5.5 5.5 93 0.5 CALM 0 0 0 0 - - 0.2
07/02:00am 6.7 5.7 5.5 92 0.5 CALM 0 0 0 0 - - 0.2
07/01:30am 6.9 5.9 5.7 92 0.6 CALM 0 4 0 2 - - 0.2
07/01:00am 6.8 5.8 5.4 91 0.6 CALM 0 0 0 0 - - 0.2
07/12:30am 6.7 5.0 5.7 93 0.5 SE 4 6 2 3 - - 0.2
07/12:00am 6.6 5.6 5.7 94 0.4 CALM 0 0 0 0 - - 0.2
 
Date/Time
EST
Temp
°C
App
Temp
°C
Dew
Point
Rel
Hum
%
Delta-T
°C
Wind Press
QNH
hPa
Press
MSL
hPa
Rain
since 9 am
mm
Dir
 
Spd
km/h
Gust
km/h
Spd
kts
Gust
kts
06/11:30pm 6.7 5.4 6.1 96 0.3 E 2 4 1 2 - - 0.2
06/11:00pm 6.7 5.5 6.3 97 0.2 ENE 2 4 1 2 - - 0.2
06/10:30pm 6.8 5.6 6.4 97 0.2 NE 2 6 1 3 - - 0.0
06/10:00pm 6.9 5.7 6.5 97 0.2 NE 2 7 1 4 - - 0.0
06/09:30pm 7.0 5.8 6.4 96 0.3 E 2 6 1 3 - - 0.0
06/09:00pm 7.0 6.2 6.6 97 0.2 CALM 0 6 0 3 - - 0.0
06/08:30pm 7.1 5.4 6.0 93 0.5 ESE 4 4 2 2 - - 0.0
06/08:00pm 6.9 5.3 6.5 97 0.2 ESE 4 6 2 3 - - 0.0
06/07:30pm 7.2 6.1 5.3 88 0.9 CALM 0 0 0 0 - - 0.0
06/07:00pm 7.8 5.8 4.4 79 1.5 NW 4 6 2 3 - - 0.0
06/06:30pm 7.8 4.5 4.6 80 1.4 N 11 15 6 8 - - 0.0
06/06:00pm 7.3 4.1 5.0 85 1.0 N 11 15 6 8 - - 0.0
06/05:30pm 8.1 5.8 4.7 79 1.5 N 6 7 3 4 - - 0.0
06/05:00pm 8.2 5.4 5.0 80 1.5 NNW 9 13 5 7 - - 0.0
06/04:30pm 7.8 5.0 5.3 84 1.1 NNW 9 13 5 7 - - 0.0
06/04:00pm 8.0 4.8 4.9 81 1.4 N 11 15 6 8 - - 0.0
06/03:30pm 7.7 3.8 5.2 84 1.1 N 15 17 8 9 - - 0.0
06/03:00pm 7.8 3.9 5.3 84 1.1 N 15 20 8 11 - - 0.0
06/02:30pm 8.0 4.5 5.6 85 1.1 NNW 13 19 7 10 - - 0.0
06/02:00pm 8.1 4.5 5.2 82 1.3 NNW 13 19 7 10 - - 0.0
06/01:30pm 8.3 4.7 4.9 79 1.6 NNW 13 17 7 9 - - 0.0
06/01:00pm 7.5 3.4 4.1 79 1.5 N 15 19 8 10 - - 0.0
06/12:30pm 7.3 3.1 3.9 79 1.5 N 15 20 8 11 - - 0.0
06/12:00pm 7.1 3.0 4.1 81 1.3 N 15 19 8 10 - - 0.0
06/11:30am 7.4 4.0 4.0 79 1.5 N 11 15 6 8 - - 0.0
06/11:00am 7.5 4.1 3.9 78 1.6 N 11 17 6 9 - - 0.0
06/10:30am 7.1 3.2 3.5 78 1.6 N 13 20 7 11 - - 0.0
06/10:00am 6.8 2.5 3.2 78 1.6 N 15 20 8 11 - - 0.0
06/09:30am 6.9 2.9 3.0 76 1.7 N 13 19 7 10 - - 0.0
06/09:00am 6.6 2.2 2.7 76 1.7 N 15 19 8 10 - - 0.0
06/08:30am 6.8 2.4 2.7 75 1.8 N 15 20 8 11 - - 0.0
06/08:00am 6.5 1.7 2.6 76 1.7 N 17 22 9 12 - - 0.0
06/07:30am 6.3 1.5 2.6 77 1.6 N 17 22 9 12 - - 0.0
06/07:00am 6.3 1.5 2.4 76 1.6 N 17 26 9 14 - - 0.0
06/06:30am 6.0 0.8 2.5 78 1.5 N 19 24 10 13 - - 0.0
06/06:00am 6.0 0.8 2.5 78 1.5 N 19 26 10 14 - - 0.0
06/05:30am 5.9 0.7 2.4 78 1.5 N 19 32 10 17 - - 0.0
06/05:00am 5.7 0.5 2.4 79 1.4 N 19 32 10 17 - - 0.0
06/04:30am 5.8 0.6 2.4 79 1.4 N 19 24 10 13 - - 0.0
06/04:00am 5.7 0.9 2.4 79 1.4 N 17 26 9 14 - - 0.0
06/03:30am 5.7 0.5 2.5 80 1.3 N 19 28 10 15 - - 0.0
06/03:00am 5.7 0.9 2.5 80 1.3 N 17 24 9 13 - - 0.0
06/02:30am 5.7 0.9 2.5 80 1.3 N 17 26 9 14 - - 0.0
06/02:00am 5.8 1.0 2.6 80 1.4 N 17 28 9 15 - - 0.0
06/01:30am 5.9 0.7 2.7 80 1.4 N 19 24 10 13 - - 0.0
06/01:00am 6.0 1.6 2.6 79 1.4 N 15 20 8 11 - - 0.0
06/12:30am 6.2 1.4 2.8 79 1.4 N 17 24 9 13 - - 0.0
06/12:00am 6.4 1.7 2.9 78 1.5 N 17 24 9 13 - - 0.0
 
Date/Time
EST
Temp
°C
App
Temp
°C
Dew
Point
Rel
Hum
%
Delta-T
°C
Wind Press
QNH
hPa
Press
MSL
hPa
Rain
since 9 am
mm
Dir
 
Spd
km/h
Gust
km/h
Spd
kts
Gust
kts
05/11:30pm 6.5 1.4 2.9 78 1.5 N 19 24 10 13 - - 0.0
05/11:00pm 6.2 1.9 3.0 80 1.4 N 15 20 8 11 - - 0.0
05/10:30pm 6.6 1.9 2.9 77 1.6 N 17 26 9 14 - - 0.0
05/10:00pm 6.6 1.9 3.0 78 1.5 N 17 22 9 12 - - 0.0
05/09:30pm 6.7 2.0 3.1 78 1.6 N 17 24 9 13 - - 0.0
05/09:00pm 6.7 2.0 3.1 78 1.6 N 17 22 9 12 - - 0.0
05/08:30pm 6.9 2.2 3.2 77 1.6 N 17 24 9 13 - - 0.0
05/08:00pm 7.2 2.5 3.3 76 1.7 N 17 22 9 12 - - 0.0
05/07:30pm 7.3 2.6 3.4 76 1.7 NNW 17 22 9 12 - - 0.0
05/07:00pm 7.4 2.8 3.6 77 1.7 N 17 24 9 13 - - 0.0
05/06:30pm 7.3 3.2 4.1 80 1.4 NNW 15 20 8 11 - - 0.0
05/06:00pm 7.7 3.6 4.3 79 1.5 N 15 22 8 12 - - 0.0
05/05:30pm 7.8 4.6 4.9 82 1.3 NNW 11 19 6 10 - - 0.0
05/05:00pm 8.8 5.5 4.6 75 1.9 NNW 11 20 6 11 - - 0.0
05/04:30pm 10.1 7.9 5.5 73 2.2 NW 6 15 3 8 - - 0.0
05/04:00pm 11.4 9.2 5.1 65 3.0 NW 6 11 3 6 - - 0.0
05/03:30pm 12.5 10.0 5.0 60 3.6 NW 7 13 4 7 - - 0.0
05/03:00pm 13.4 11.1 5.6 59 3.8 NW 7 15 4 8 - - 0.0
05/02:30pm 13.5 11.3 6.4 62 3.5 NW 7 19 4 10 - - 0.0
05/02:00pm 13.7 11.6 5.8 59 3.8 NW 6 11 3 6 - - 0.0
05/01:30pm 13.6 11.5 6.0 60 3.7 NW 6 15 3 8 - - 0.0
05/01:00pm 12.9 11.1 7.1 68 2.9 NW 6 11 3 6 - - 0.0
05/12:30pm 11.9 9.7 6.0 67 2.8 NNW 7 13 4 7 - - 0.0
05/12:00pm 12.3 10.2 6.8 69 2.7 NNW 7 15 4 8 - - 0.0
05/11:30am 11.4 9.4 6.1 70 2.5 NNW 6 11 3 6 - - 0.0
05/11:00am 11.1 8.8 5.8 70 2.5 NNW 7 11 4 6 - - 0.0
05/10:30am 9.9 7.1 5.1 72 2.2 N 9 13 5 7 - - 0.0
05/10:00am 8.9 5.2 4.7 75 1.9 NNW 13 19 7 10 - - 0.0
05/09:30am 8.2 4.1 4.2 76 1.8 N 15 22 8 12 - - 0.0
05/09:00am 7.5 3.7 4.1 79 1.5 N 13 20 7 11 - - 0.0
05/08:30am 6.9 3.0 3.5 79 1.5 N 13 17 7 9 - - 0.0
05/08:00am 7.0 3.5 3.4 78 1.6 N 11 17 6 9 - - 0.0
05/07:30am 6.9 3.0 3.5 79 1.5 N 13 17 7 9 - - 0.0
05/07:00am 6.8 2.9 3.4 79 1.5 N 13 17 7 9 - - 0.0
05/06:30am 7.2 3.3 3.6 78 1.6 N 13 17 7 9 - - 0.0
05/06:00am 7.3 3.8 3.7 78 1.6 N 11 17 6 9 - - 0.0
05/05:30am 7.0 3.2 3.8 80 1.4 N 13 17 7 9 - - 0.0
05/05:00am 7.2 3.4 3.8 79 1.5 N 13 19 7 10 - - 0.0
05/04:30am 7.6 4.2 4.0 78 1.6 NNW 11 17 6 9 - - 0.0
05/04:00am 7.5 3.7 3.9 78 1.6 N 13 19 7 10 - - 0.0
05/03:30am 7.5 3.7 4.1 79 1.5 N 13 15 7 8 - - 0.0
05/03:00am 7.3 3.5 4.1 80 1.4 N 13 17 7 9 - - 0.0
05/02:30am 7.5 3.7 4.1 79 1.5 N 13 15 7 8 - - 0.0
05/02:00am 7.5 5.1 4.1 79 1.5 NNW 6 11 3 6 - - 0.0
05/01:30am 7.5 3.7 3.9 78 1.6 N 13 19 7 10 - - 0.0
05/01:00am 7.7 3.6 4.1 78 1.6 N 15 20 8 11 - - 0.0
05/12:30am 7.3 3.5 3.9 79 1.5 N 13 17 7 9 - - 0.0
05/12:00am 7.4 3.6 4.0 79 1.5 N 13 17 7 9 - - 0.0
 
Date/Time
EST
Temp
°C
App
Temp
°C
Dew
Point
Rel
Hum
%
Delta-T
°C
Wind Press
QNH
hPa
Press
MSL
hPa
Rain
since 9 am
mm
Dir
 
Spd
km/h
Gust
km/h
Spd
kts
Gust
kts
04/11:30pm 7.4 4.0 4.2 80 1.4 N 11 15 6 8 - - 0.0
04/11:00pm 8.0 4.3 4.2 77 1.7 N 13 15 7 8 - - 0.0
04/10:30pm 7.8 4.1 4.2 78 1.6 N 13 20 7 11 - - 0.0
04/10:00pm 7.9 4.1 4.1 77 1.7 N 13 17 7 9 - - 0.0
04/09:30pm 8.1 4.4 4.3 77 1.7 N 13 17 7 9 - - 0.0
04/09:00pm 8.7 5.8 4.7 76 1.8 NNW 9 15 5 8 - - 0.0
04/08:30pm 8.9 6.4 4.9 76 1.8 NW 7 9 4 5 - - 0.0
04/08:00pm 9.1 6.7 5.1 76 1.8 NW 7 13 4 7 - - 0.0
04/07:30pm 9.2 6.8 5.2 76 1.9 NW 7 15 4 8 - - 0.0
04/07:00pm 9.2 7.0 5.2 76 1.9 NW 6 13 3 7 - - 0.0
04/06:30pm 9.1 6.9 5.3 77 1.8 NNW 6 9 3 5 - - 0.0
04/06:00pm 9.0 6.8 5.4 78 1.7 NW 6 9 3 5 - - 0.0
04/05:30pm 9.1 6.7 5.3 77 1.8 WNW 7 17 4 9 - - 0.0
04/05:00pm 9.1 6.8 5.5 78 1.7 WNW 7 13 4 7 - - 0.0

Other Formats:

Comma delimited format used in spreadsheet applications
http://www.bom.gov.au/fwo/IDV60801/IDV60801.95913.axf

JavaScript Object Notation format (JSON) in row-major order
http://www.bom.gov.au/fwo/IDV60801/IDV60801.95913.json